Aérodrome :
LOGIN :

S'inscrire | Disclaimer

   EN    FR    IT 

 










Légende :    VFR   VFR Marginal   IFR   IFR Intensif   IFR Très Intensif
Visi : 
Plafond : 
>= 8 km
>= 3000ft
5 à 8 km
1000 à 3000 ft
1500m à 5 km
500 à 1000 ft
800 à 1500m
200 à 500 ft
< 800m
< 200 ft
Symboles :   Orages  Brouillard  Fortes neiges  Fortes précipitations  Vent > 20 kt
SIGMETs :   Divers  Orages  Givrage  Turbulence  Onde Orograph.  Cendres Volcan.







- Altitude de l'aérodrome : 74 ft
- Code IATA : MRS
- Voir les cartes d'approche


LFML - Marseille / Marignane

DERNIER METAR :
  • 102030Z AUTO 32019KT CAVOK 10/03 Q1024 BECMG 32023G33KT

METARs EXPIRÉS :
  • 102000Z AUTO 32019KT CAVOK 10/03 Q1024 NOSIG
  • 101930Z AUTO 31022KT 9999 FEW015 10/03 Q1024 NOSIG
  • 101900Z AUTO 31022KT CAVOK 10/03 Q1024 NOSIG
  • 101830Z AUTO 31023G33KT CAVOK 10/03 Q1024 BECMG 32020KT
  • 101800Z AUTO 32022KT 9999 FEW016 11/03 Q1023 NOSIG

TAF TAF LFML
Valide du 10 à 21h jusqu'au 12 à 03h UTC


102000Z 1021/1203 32023G33KT CAVOK TX12/1115Z TN06/1106Z
BECMG 1104/1106 34015G25KT
BECMG 1114/1116 36010KT
ATIS : +33 4 42 31 15 15
Pas de NOTAMs connus pour ce terrain.
2 SIGMETs publiés pour la FIR Marseille (LFMM) :
 
Turbulence forte
LFMM SIGMET 14 VALID 101800/102200 LFPW
LFMM MARSEILLE FIR/UIR SEV TURB FCST WI N4100 E00430 - N4200 E00430 - N4215 E00230 - N4330 E00245 - N4500 E00445 - N4215 E00715 - N4100 E00615 - N4100 E00430 SFC/FL060 STNR NC=
Turbulence forte
LFMM SIGMET 13 VALID 101800/102200 LFPW
LFMM MARSEILLE FIR/UIR SEV TURB FCST WI N4630 E00600 - N4630 E00700 - N4400 E00700 - N4345 E00745 - N4245 E00600 - N4630 E00600 SFC/FL120 STNR NC=



MET'MAP, la Météo Aéronautique d'un coup d'oeil ! - Copyright ORBIFLY Décembre 2007 - Disclaimer

ORBIFLY MET'MAP TEAM :

Programmation & Développement : Alexandra Zaïnal
Conception & Développement : Baudouin d'Aumeries
Co-Programmation & Développement : Marc-Olivier Méhu
Soutien technique & logistique : Manuel Goepfert

Contact : metmap@orbifly.com




SOURCES & CREDITS :

   NOAA